sensor_id;sensor_type;location;lat;lon;timestamp;P1;durP1;ratioP1;P2;durP2;ratioP2
12910;SDS011;6523;49.758;6.120;2023-02-01T00:01:47;21.73;;;12.37;;
12910;SDS011;6523;49.758;6.120;2023-02-01T00:04:13;19.40;;;12.30;;
12910;SDS011;6523;49.758;6.120;2023-02-01T00:06:39;17.33;;;11.93;;
12910;SDS011;6523;49.758;6.120;2023-02-01T00:09:04;17.23;;;11.50;;
12910;SDS011;6523;49.758;6.120;2023-02-01T00:11:30;15.87;;;10.87;;
12910;SDS011;6523;49.758;6.120;2023-02-01T00:13:56;14.57;;;10.63;;
12910;SDS011;6523;49.758;6.120;2023-02-01T00:16:22;16.73;;;11.77;;
12910;SDS011;6523;49.758;6.120;2023-02-01T00:18:51;15.37;;;9.03;;
12910;SDS011;6523;49.758;6.120;2023-02-01T00:21:20;17.13;;;10.77;;
12910;SDS011;6523;49.758;6.120;2023-02-01T00:23:46;16.27;;;10.07;;
12910;SDS011;6523;49.758;6.120;2023-02-01T00:26:16;17.30;;;10.17;;
12910;SDS011;6523;49.758;6.120;2023-02-01T00:28:43;15.13;;;9.70;;
12910;SDS011;6523;49.758;6.120;2023-02-01T00:31:09;16.90;;;10.63;;
12910;SDS011;6523;49.758;6.120;2023-02-01T00:33:35;17.00;;;11.30;;
12910;SDS011;6523;49.758;6.120;2023-02-01T00:36:01;13.87;;;9.60;;
12910;SDS011;6523;49.758;6.120;2023-02-01T00:38:29;17.10;;;10.20;;
12910;SDS011;6523;49.758;6.120;2023-02-01T00:41:06;15.03;;;9.93;;
12910;SDS011;6523;49.758;6.120;2023-02-01T00:43:34;14.73;;;9.87;;
12910;SDS011;6523;49.758;6.120;2023-02-01T00:46:00;16.67;;;10.23;;
12910;SDS011;6523;49.758;6.120;2023-02-01T00:48:26;14.27;;;10.57;;
12910;SDS011;6523;49.758;6.120;2023-02-01T00:50:52;16.20;;;9.83;;
12910;SDS011;6523;49.758;6.120;2023-02-01T00:53:18;16.53;;;10.77;;
12910;SDS011;6523;49.758;6.120;2023-02-01T00:55:47;16.10;;;10.30;;
12910;SDS011;6523;49.758;6.120;2023-02-01T00:58:13;15.33;;;10.00;;
12910;SDS011;6523;49.758;6.120;2023-02-01T01:00:39;13.93;;;9.50;;
12910;SDS011;6523;49.758;6.120;2023-02-01T01:03:06;15.20;;;10.67;;
12910;SDS011;6523;49.758;6.120;2023-02-01T01:05:49;16.87;;;10.80;;
12910;SDS011;6523;49.758;6.120;2023-02-01T01:08:15;14.03;;;9.50;;
12910;SDS011;6523;49.758;6.120;2023-02-01T01:10:41;15.73;;;9.10;;
12910;SDS011;6523;49.758;6.120;2023-02-01T01:13:07;18.03;;;10.43;;
12910;SDS011;6523;49.758;6.120;2023-02-01T01:15:38;15.70;;;10.33;;
12910;SDS011;6523;49.758;6.120;2023-02-01T01:18:04;15.37;;;10.17;;
12910;SDS011;6523;49.758;6.120;2023-02-01T01:20:30;17.40;;;10.47;;
12910;SDS011;6523;49.758;6.120;2023-02-01T01:22:55;15.87;;;10.53;;
12910;SDS011;6523;49.758;6.120;2023-02-01T01:25:21;15.97;;;10.30;;
12910;SDS011;6523;49.758;6.120;2023-02-01T01:27:46;14.70;;;9.90;;
12910;SDS011;6523;49.758;6.120;2023-02-01T01:30:12;19.47;;;10.60;;
12910;SDS011;6523;49.758;6.120;2023-02-01T01:32:38;16.70;;;10.37;;
12910;SDS011;6523;49.758;6.120;2023-02-01T01:35:04;17.50;;;11.40;;
12910;SDS011;6523;49.758;6.120;2023-02-01T01:37:29;17.57;;;10.77;;
12910;SDS011;6523;49.758;6.120;2023-02-01T01:39:56;15.73;;;10.40;;
12910;SDS011;6523;49.758;6.120;2023-02-01T01:42:22;16.10;;;9.80;;
12910;SDS011;6523;49.758;6.120;2023-02-01T01:47:29;16.83;;;10.87;;
12910;SDS011;6523;49.758;6.120;2023-02-01T01:50:00;18.07;;;9.77;;
12910;SDS011;6523;49.758;6.120;2023-02-01T01:52:27;16.83;;;10.97;;
12910;SDS011;6523;49.758;6.120;2023-02-01T01:54:53;15.47;;;10.20;;
12910;SDS011;6523;49.758;6.120;2023-02-01T01:57:20;13.93;;;9.20;;
12910;SDS011;6523;49.758;6.120;2023-02-01T01:59:50;12.77;;;9.07;;
12910;SDS011;6523;49.758;6.120;2023-02-01T02:02:23;14.67;;;9.07;;
12910;SDS011;6523;49.758;6.120;2023-02-01T02:04:49;15.83;;;9.50;;
12910;SDS011;6523;49.758;6.120;2023-02-01T02:07:23;17.03;;;9.80;;
12910;SDS011;6523;49.758;6.120;2023-02-01T02:09:53;15.73;;;8.63;;
12910;SDS011;6523;49.758;6.120;2023-02-01T02:12:20;14.87;;;8.43;;
12910;SDS011;6523;49.758;6.120;2023-02-01T02:14:45;16.77;;;9.37;;
12910;SDS011;6523;49.758;6.120;2023-02-01T02:17:18;11.73;;;8.07;;
12910;SDS011;6523;49.758;6.120;2023-02-01T02:25:51;12.93;;;7.83;;
12910;SDS011;6523;49.758;6.120;2023-02-01T02:28:51;13.00;;;8.50;;
12910;SDS011;6523;49.758;6.120;2023-02-01T02:42:56;14.33;;;8.70;;
12910;SDS011;6523;49.758;6.120;2023-02-01T02:46:21;13.97;;;8.77;;
12910;SDS011;6523;49.758;6.120;2023-02-01T02:49:19;15.37;;;8.33;;
12910;SDS011;6523;49.758;6.120;2023-02-01T02:52:09;14.67;;;9.47;;
12910;SDS011;6523;49.758;6.120;2023-02-01T02:54:59;14.57;;;8.53;;
12910;SDS011;6523;49.758;6.120;2023-02-01T02:57:36;13.07;;;9.20;;
12910;SDS011;6523;49.758;6.120;2023-02-01T03:00:24;15.50;;;9.70;;
12910;SDS011;6523;49.758;6.120;2023-02-01T03:03:11;15.93;;;9.93;;
12910;SDS011;6523;49.758;6.120;2023-02-01T03:05:56;15.53;;;9.93;;
12910;SDS011;6523;49.758;6.120;2023-02-01T03:08:22;16.03;;;9.93;;
12910;SDS011;6523;49.758;6.120;2023-02-01T03:10:52;16.40;;;9.07;;
12910;SDS011;6523;49.758;6.120;2023-02-01T03:16:32;16.07;;;9.53;;
12910;SDS011;6523;49.758;6.120;2023-02-01T03:19:02;17.77;;;8.93;;
12910;SDS011;6523;49.758;6.120;2023-02-01T03:21:36;13.23;;;9.07;;
12910;SDS011;6523;49.758;6.120;2023-02-01T03:24:06;14.63;;;9.20;;
12910;SDS011;6523;49.758;6.120;2023-02-01T03:26:44;15.33;;;9.50;;
12910;SDS011;6523;49.758;6.120;2023-02-01T03:29:16;17.17;;;9.60;;
12910;SDS011;6523;49.758;6.120;2023-02-01T03:31:46;14.70;;;9.00;;
12910;SDS011;6523;49.758;6.120;2023-02-01T03:34:12;17.00;;;9.47;;
12910;SDS011;6523;49.758;6.120;2023-02-01T03:36:51;14.77;;;8.53;;
12910;SDS011;6523;49.758;6.120;2023-02-01T03:42:18;16.37;;;9.87;;
12910;SDS011;6523;49.758;6.120;2023-02-01T03:47:29;13.73;;;8.93;;
12910;SDS011;6523;49.758;6.120;2023-02-01T03:50:00;15.07;;;9.30;;
12910;SDS011;6523;49.758;6.120;2023-02-01T03:52:34;13.83;;;9.37;;
12910;SDS011;6523;49.758;6.120;2023-02-01T03:55:06;11.03;;;8.23;;
12910;SDS011;6523;49.758;6.120;2023-02-01T03:57:34;13.07;;;8.83;;
12910;SDS011;6523;49.758;6.120;2023-02-01T04:00:06;13.10;;;9.10;;
12910;SDS011;6523;49.758;6.120;2023-02-01T04:02:39;14.00;;;8.30;;
12910;SDS011;6523;49.758;6.120;2023-02-01T04:05:05;13.50;;;8.50;;
12910;SDS011;6523;49.758;6.120;2023-02-01T04:07:30;15.33;;;8.63;;
12910;SDS011;6523;49.758;6.120;2023-02-01T04:09:57;10.97;;;7.83;;
12910;SDS011;6523;49.758;6.120;2023-02-01T04:12:22;16.23;;;8.30;;
12910;SDS011;6523;49.758;6.120;2023-02-01T04:14:48;15.53;;;8.73;;
12910;SDS011;6523;49.758;6.120;2023-02-01T04:17:13;12.13;;;8.80;;
12910;SDS011;6523;49.758;6.120;2023-02-01T04:19:39;15.00;;;9.10;;
12910;SDS011;6523;49.758;6.120;2023-02-01T04:22:04;13.93;;;7.70;;
12910;SDS011;6523;49.758;6.120;2023-02-01T04:24:30;13.90;;;7.93;;
12910;SDS011;6523;49.758;6.120;2023-02-01T04:26:55;14.50;;;6.70;;
12910;SDS011;6523;49.758;6.120;2023-02-01T04:29:21;14.37;;;8.30;;
12910;SDS011;6523;49.758;6.120;2023-02-01T04:31:46;14.30;;;7.37;;
12910;SDS011;6523;49.758;6.120;2023-02-01T04:34:12;11.53;;;6.90;;
12910;SDS011;6523;49.758;6.120;2023-02-01T04:36:37;14.13;;;6.93;;
12910;SDS011;6523;49.758;6.120;2023-02-01T04:39:03;11.97;;;6.63;;
12910;SDS011;6523;49.758;6.120;2023-02-01T04:41:28;11.97;;;6.60;;
12910;SDS011;6523;49.758;6.120;2023-02-01T04:43:55;14.00;;;6.63;;
12910;SDS011;6523;49.758;6.120;2023-02-01T04:46:21;13.83;;;6.30;;
12910;SDS011;6523;49.758;6.120;2023-02-01T04:48:47;8.50;;;5.70;;
12910;SDS011;6523;49.758;6.120;2023-02-01T04:51:12;15.80;;;5.90;;
12910;SDS011;6523;49.758;6.120;2023-02-01T04:53:40;15.67;;;6.53;;
12910;SDS011;6523;49.758;6.120;2023-02-01T04:56:05;12.07;;;5.87;;
12910;SDS011;6523;49.758;6.120;2023-02-01T04:58:31;13.83;;;5.27;;
12910;SDS011;6523;49.758;6.120;2023-02-01T05:00:57;15.90;;;5.10;;
12910;SDS011;6523;49.758;6.120;2023-02-01T05:03:22;11.87;;;4.73;;
12910;SDS011;6523;49.758;6.120;2023-02-01T05:05:48;11.40;;;4.83;;
12910;SDS011;6523;49.758;6.120;2023-02-01T05:08:14;12.03;;;4.83;;
12910;SDS011;6523;49.758;6.120;2023-02-01T05:10:40;13.80;;;5.37;;
12910;SDS011;6523;49.758;6.120;2023-02-01T05:13:05;13.77;;;5.37;;
12910;SDS011;6523;49.758;6.120;2023-02-01T05:15:51;9.93;;;5.10;;
12910;SDS011;6523;49.758;6.120;2023-02-01T05:18:16;11.27;;;4.40;;
12910;SDS011;6523;49.758;6.120;2023-02-01T05:20:42;9.93;;;4.60;;
12910;SDS011;6523;49.758;6.120;2023-02-01T05:23:07;9.30;;;4.33;;
12910;SDS011;6523;49.758;6.120;2023-02-01T05:25:33;12.33;;;4.60;;
12910;SDS011;6523;49.758;6.120;2023-02-01T05:27:59;13.60;;;4.27;;
12910;SDS011;6523;49.758;6.120;2023-02-01T05:30:24;12.97;;;4.70;;
12910;SDS011;6523;49.758;6.120;2023-02-01T05:32:50;12.47;;;4.17;;
12910;SDS011;6523;49.758;6.120;2023-02-01T05:35:17;11.77;;;4.00;;
12910;SDS011;6523;49.758;6.120;2023-02-01T05:37:43;12.93;;;3.70;;
12910;SDS011;6523;49.758;6.120;2023-02-01T05:40:09;9.70;;;3.57;;
12910;SDS011;6523;49.758;6.120;2023-02-01T05:42:35;10.83;;;3.67;;
12910;SDS011;6523;49.758;6.120;2023-02-01T05:45:00;11.83;;;3.80;;
12910;SDS011;6523;49.758;6.120;2023-02-01T05:47:26;10.93;;;3.53;;
12910;SDS011;6523;49.758;6.120;2023-02-01T05:49:51;9.97;;;3.40;;
12910;SDS011;6523;49.758;6.120;2023-02-01T05:52:17;13.53;;;3.53;;
12910;SDS011;6523;49.758;6.120;2023-02-01T05:54:44;14.23;;;4.97;;
12910;SDS011;6523;49.758;6.120;2023-02-01T05:57:11;10.00;;;3.80;;
12910;SDS011;6523;49.758;6.120;2023-02-01T05:59:37;9.33;;;3.30;;
12910;SDS011;6523;49.758;6.120;2023-02-01T06:02:06;8.87;;;3.23;;
12910;SDS011;6523;49.758;6.120;2023-02-01T06:04:32;7.70;;;3.13;;
12910;SDS011;6523;49.758;6.120;2023-02-01T06:06:57;11.07;;;3.40;;
12910;SDS011;6523;49.758;6.120;2023-02-01T06:09:23;16.73;;;4.10;;
12910;SDS011;6523;49.758;6.120;2023-02-01T06:11:49;12.67;;;3.03;;
12910;SDS011;6523;49.758;6.120;2023-02-01T06:14:14;15.53;;;3.57;;
12910;SDS011;6523;49.758;6.120;2023-02-01T06:16:40;10.10;;;2.93;;
12910;SDS011;6523;49.758;6.120;2023-02-01T06:19:05;25.00;;;8.43;;
12910;SDS011;6523;49.758;6.120;2023-02-01T06:21:31;17.90;;;8.00;;
12910;SDS011;6523;49.758;6.120;2023-02-01T06:23:58;10.30;;;3.20;;
12910;SDS011;6523;49.758;6.120;2023-02-01T06:26:24;12.73;;;3.83;;
12910;SDS011;6523;49.758;6.120;2023-02-01T06:28:49;10.90;;;3.33;;
12910;SDS011;6523;49.758;6.120;2023-02-01T06:31:15;10.67;;;3.30;;
12910;SDS011;6523;49.758;6.120;2023-02-01T06:33:41;13.67;;;3.20;;
12910;SDS011;6523;49.758;6.120;2023-02-01T06:36:07;15.03;;;3.03;;
12910;SDS011;6523;49.758;6.120;2023-02-01T06:38:34;10.00;;;3.03;;
12910;SDS011;6523;49.758;6.120;2023-02-01T06:41:00;14.20;;;3.30;;
12910;SDS011;6523;49.758;6.120;2023-02-01T06:43:27;14.23;;;3.97;;
12910;SDS011;6523;49.758;6.120;2023-02-01T06:45:53;15.10;;;5.77;;
12910;SDS011;6523;49.758;6.120;2023-02-01T06:48:24;10.80;;;4.17;;
12910;SDS011;6523;49.758;6.120;2023-02-01T06:50:49;12.80;;;5.50;;
12910;SDS011;6523;49.758;6.120;2023-02-01T06:53:15;11.90;;;4.83;;
12910;SDS011;6523;49.758;6.120;2023-02-01T06:55:41;10.67;;;3.40;;
12910;SDS011;6523;49.758;6.120;2023-02-01T06:58:06;11.27;;;3.57;;
12910;SDS011;6523;49.758;6.120;2023-02-01T07:00:32;11.83;;;3.43;;
12910;SDS011;6523;49.758;6.120;2023-02-01T07:02:57;13.33;;;3.70;;
12910;SDS011;6523;49.758;6.120;2023-02-01T07:05:24;8.50;;;2.90;;
12910;SDS011;6523;49.758;6.120;2023-02-01T07:07:49;11.40;;;3.40;;
12910;SDS011;6523;49.758;6.120;2023-02-01T07:10:15;12.13;;;3.17;;
12910;SDS011;6523;49.758;6.120;2023-02-01T07:12:41;15.30;;;3.03;;
12910;SDS011;6523;49.758;6.120;2023-02-01T07:15:07;13.03;;;2.80;;
12910;SDS011;6523;49.758;6.120;2023-02-01T07:17:32;11.50;;;3.00;;
12910;SDS011;6523;49.758;6.120;2023-02-01T07:19:58;6.70;;;2.70;;
12910;SDS011;6523;49.758;6.120;2023-02-01T07:22:25;10.97;;;3.17;;
12910;SDS011;6523;49.758;6.120;2023-02-01T07:24:50;10.63;;;2.97;;
12910;SDS011;6523;49.758;6.120;2023-02-01T07:27:16;14.43;;;3.60;;
12910;SDS011;6523;49.758;6.120;2023-02-01T07:29:41;11.00;;;3.40;;
12910;SDS011;6523;49.758;6.120;2023-02-01T07:32:07;15.97;;;4.10;;
12910;SDS011;6523;49.758;6.120;2023-02-01T07:34:33;9.83;;;3.67;;
12910;SDS011;6523;49.758;6.120;2023-02-01T07:36:58;11.80;;;3.00;;
12910;SDS011;6523;49.758;6.120;2023-02-01T07:39:24;9.67;;;2.73;;
12910;SDS011;6523;49.758;6.120;2023-02-01T07:41:50;13.63;;;3.00;;
12910;SDS011;6523;49.758;6.120;2023-02-01T07:44:15;12.70;;;4.30;;
12910;SDS011;6523;49.758;6.120;2023-02-01T07:46:43;10.77;;;4.10;;
12910;SDS011;6523;49.758;6.120;2023-02-01T07:49:09;14.80;;;4.13;;
12910;SDS011;6523;49.758;6.120;2023-02-01T07:51:35;10.17;;;3.20;;
12910;SDS011;6523;49.758;6.120;2023-02-01T07:54:00;11.13;;;4.13;;
12910;SDS011;6523;49.758;6.120;2023-02-01T07:56:26;12.60;;;4.13;;
12910;SDS011;6523;49.758;6.120;2023-02-01T07:58:52;10.07;;;3.50;;
12910;SDS011;6523;49.758;6.120;2023-02-01T08:01:22;13.27;;;3.93;;
12910;SDS011;6523;49.758;6.120;2023-02-01T08:03:53;11.77;;;4.00;;
12910;SDS011;6523;49.758;6.120;2023-02-01T08:06:20;14.93;;;4.37;;
12910;SDS011;6523;49.758;6.120;2023-02-01T08:08:47;13.27;;;3.70;;
12910;SDS011;6523;49.758;6.120;2023-02-01T08:11:14;13.47;;;4.03;;
12910;SDS011;6523;49.758;6.120;2023-02-01T08:13:40;14.33;;;3.50;;
12910;SDS011;6523;49.758;6.120;2023-02-01T08:16:07;11.33;;;3.60;;
12910;SDS011;6523;49.758;6.120;2023-02-01T08:18:35;11.17;;;3.73;;
12910;SDS011;6523;49.758;6.120;2023-02-01T08:21:06;17.47;;;7.00;;
12910;SDS011;6523;49.758;6.120;2023-02-01T08:23:39;16.90;;;4.23;;
12910;SDS011;6523;49.758;6.120;2023-02-01T08:26:10;11.47;;;3.63;;
12910;SDS011;6523;49.758;6.120;2023-02-01T08:28:44;13.67;;;4.37;;
12910;SDS011;6523;49.758;6.120;2023-02-01T08:31:14;15.33;;;4.43;;
12910;SDS011;6523;49.758;6.120;2023-02-01T08:33:41;14.57;;;4.07;;
12910;SDS011;6523;49.758;6.120;2023-02-01T08:36:08;11.53;;;3.43;;
12910;SDS011;6523;49.758;6.120;2023-02-01T08:38:35;12.87;;;3.70;;
12910;SDS011;6523;49.758;6.120;2023-02-01T08:41:06;15.60;;;4.03;;
12910;SDS011;6523;49.758;6.120;2023-02-01T08:43:33;12.40;;;3.50;;
12910;SDS011;6523;49.758;6.120;2023-02-01T08:45:59;15.17;;;3.70;;
12910;SDS011;6523;49.758;6.120;2023-02-01T08:48:24;11.53;;;3.43;;
12910;SDS011;6523;49.758;6.120;2023-02-01T08:50:50;12.30;;;4.00;;
12910;SDS011;6523;49.758;6.120;2023-02-01T08:53:15;14.90;;;3.67;;
12910;SDS011;6523;49.758;6.120;2023-02-01T08:55:41;11.73;;;4.00;;
12910;SDS011;6523;49.758;6.120;2023-02-01T08:58:06;12.30;;;3.83;;
12910;SDS011;6523;49.758;6.120;2023-02-01T09:00:32;17.40;;;4.43;;
12910;SDS011;6523;49.758;6.120;2023-02-01T09:02:57;12.57;;;4.27;;
12910;SDS011;6523;49.758;6.120;2023-02-01T09:05:23;14.00;;;3.67;;
12910;SDS011;6523;49.758;6.120;2023-02-01T09:07:51;13.67;;;3.10;;
12910;SDS011;6523;49.758;6.120;2023-02-01T09:10:17;12.40;;;4.03;;
12910;SDS011;6523;49.758;6.120;2023-02-01T09:12:43;11.70;;;3.57;;
12910;SDS011;6523;49.758;6.120;2023-02-01T09:15:09;9.63;;;3.70;;
12910;SDS011;6523;49.758;6.120;2023-02-01T09:17:35;12.03;;;3.40;;
12910;SDS011;6523;49.758;6.120;2023-02-01T09:20:01;12.63;;;3.80;;
12910;SDS011;6523;49.758;6.120;2023-02-01T09:22:27;10.37;;;3.90;;
12910;SDS011;6523;49.758;6.120;2023-02-01T09:24:52;16.90;;;3.43;;
12910;SDS011;6523;49.758;6.120;2023-02-01T09:27:18;15.67;;;4.17;;
12910;SDS011;6523;49.758;6.120;2023-02-01T09:29:44;13.03;;;3.57;;
12910;SDS011;6523;49.758;6.120;2023-02-01T09:32:09;8.40;;;3.00;;
12910;SDS011;6523;49.758;6.120;2023-02-01T09:34:35;14.23;;;3.83;;
12910;SDS011;6523;49.758;6.120;2023-02-01T09:37:01;10.53;;;3.23;;
12910;SDS011;6523;49.758;6.120;2023-02-01T09:39:27;10.07;;;3.57;;
12910;SDS011;6523;49.758;6.120;2023-02-01T09:44:30;12.40;;;3.33;;
12910;SDS011;6523;49.758;6.120;2023-02-01T09:47:00;7.30;;;3.00;;
12910;SDS011;6523;49.758;6.120;2023-02-01T09:49:27;13.73;;;3.47;;
12910;SDS011;6523;49.758;6.120;2023-02-01T09:51:56;13.20;;;3.53;;
12910;SDS011;6523;49.758;6.120;2023-02-01T09:54:26;13.83;;;3.43;;
12910;SDS011;6523;49.758;6.120;2023-02-01T09:57:01;8.53;;;3.40;;
12910;SDS011;6523;49.758;6.120;2023-02-01T09:59:41;10.00;;;2.63;;
12910;SDS011;6523;49.758;6.120;2023-02-01T10:02:19;14.07;;;3.53;;
12910;SDS011;6523;49.758;6.120;2023-02-01T10:04:47;10.13;;;3.33;;
12910;SDS011;6523;49.758;6.120;2023-02-01T10:15:09;11.10;;;3.33;;
12910;SDS011;6523;49.758;6.120;2023-02-01T10:23:29;10.53;;;2.87;;
12910;SDS011;6523;49.758;6.120;2023-02-01T10:26:08;11.70;;;3.70;;
12910;SDS011;6523;49.758;6.120;2023-02-01T10:28:59;9.53;;;2.87;;
12910;SDS011;6523;49.758;6.120;2023-02-01T10:31:34;11.43;;;3.17;;
12910;SDS011;6523;49.758;6.120;2023-02-01T10:39:32;16.33;;;6.10;;
12910;SDS011;6523;49.758;6.120;2023-02-01T10:41:58;8.83;;;3.53;;
12910;SDS011;6523;49.758;6.120;2023-02-01T10:44:24;6.70;;;2.70;;
12910;SDS011;6523;49.758;6.120;2023-02-01T10:46:53;7.00;;;2.50;;
12910;SDS011;6523;49.758;6.120;2023-02-01T10:57:57;6.83;;;2.43;;
12910;SDS011;6523;49.758;6.120;2023-02-01T11:00:25;11.90;;;3.50;;
12910;SDS011;6523;49.758;6.120;2023-02-01T11:02:52;11.03;;;2.93;;
12910;SDS011;6523;49.758;6.120;2023-02-01T11:05:18;11.73;;;2.90;;
12910;SDS011;6523;49.758;6.120;2023-02-01T11:07:50;13.30;;;3.40;;
12910;SDS011;6523;49.758;6.120;2023-02-01T11:10:39;5.87;;;2.97;;
12910;SDS011;6523;49.758;6.120;2023-02-01T11:13:17;11.03;;;3.00;;
12910;SDS011;6523;49.758;6.120;2023-02-01T11:15:46;10.67;;;3.77;;
12910;SDS011;6523;49.758;6.120;2023-02-01T11:18:20;8.73;;;3.47;;
12910;SDS011;6523;49.758;6.120;2023-02-01T11:20:52;11.57;;;3.70;;
12910;SDS011;6523;49.758;6.120;2023-02-01T11:23:20;11.73;;;3.17;;
12910;SDS011;6523;49.758;6.120;2023-02-01T11:28:25;11.57;;;2.83;;
12910;SDS011;6523;49.758;6.120;2023-02-01T11:30:56;15.17;;;2.70;;
12910;SDS011;6523;49.758;6.120;2023-02-01T11:33:25;16.93;;;6.53;;
12910;SDS011;6523;49.758;6.120;2023-02-01T11:35:55;11.33;;;4.10;;
12910;SDS011;6523;49.758;6.120;2023-02-01T11:38:27;14.77;;;4.20;;
12910;SDS011;6523;49.758;6.120;2023-02-01T11:40:55;10.93;;;2.73;;
12910;SDS011;6523;49.758;6.120;2023-02-01T11:43:35;8.10;;;2.73;;
12910;SDS011;6523;49.758;6.120;2023-02-01T11:46:02;9.43;;;2.93;;
12910;SDS011;6523;49.758;6.120;2023-02-01T11:48:30;8.17;;;3.33;;
12910;SDS011;6523;49.758;6.120;2023-02-01T11:51:01;8.43;;;2.60;;
12910;SDS011;6523;49.758;6.120;2023-02-01T12:01:44;9.17;;;2.47;;
12910;SDS011;6523;49.758;6.120;2023-02-01T12:07:20;6.83;;;1.97;;
12910;SDS011;6523;49.758;6.120;2023-02-01T12:13:09;7.73;;;2.30;;
12910;SDS011;6523;49.758;6.120;2023-02-01T12:16:15;8.17;;;2.87;;
12910;SDS011;6523;49.758;6.120;2023-02-01T12:27:33;7.60;;;2.83;;
12910;SDS011;6523;49.758;6.120;2023-02-01T12:30:15;9.03;;;2.27;;
12910;SDS011;6523;49.758;6.120;2023-02-01T12:41:16;7.40;;;3.13;;
12910;SDS011;6523;49.758;6.120;2023-02-01T12:44:10;8.83;;;2.60;;
12910;SDS011;6523;49.758;6.120;2023-02-01T12:46:50;5.97;;;2.53;;
12910;SDS011;6523;49.758;6.120;2023-02-01T12:49:22;8.30;;;2.30;;
12910;SDS011;6523;49.758;6.120;2023-02-01T12:52:09;6.53;;;1.70;;
12910;SDS011;6523;49.758;6.120;2023-02-01T12:54:42;11.20;;;2.40;;
12910;SDS011;6523;49.758;6.120;2023-02-01T12:57:26;6.43;;;2.40;;
12910;SDS011;6523;49.758;6.120;2023-02-01T13:00:01;8.60;;;2.43;;
12910;SDS011;6523;49.758;6.120;2023-02-01T13:02:50;10.50;;;3.07;;
12910;SDS011;6523;49.758;6.120;2023-02-01T13:05:21;9.23;;;2.50;;
12910;SDS011;6523;49.758;6.120;2023-02-01T13:08:02;8.53;;;2.80;;
12910;SDS011;6523;49.758;6.120;2023-02-01T13:10:46;7.60;;;2.23;;
12910;SDS011;6523;49.758;6.120;2023-02-01T13:13:28;7.70;;;3.10;;
12910;SDS011;6523;49.758;6.120;2023-02-01T13:16:01;7.47;;;1.97;;
12910;SDS011;6523;49.758;6.120;2023-02-01T13:18:32;5.77;;;2.60;;
12910;SDS011;6523;49.758;6.120;2023-02-01T13:23:46;15.33;;;2.67;;
12910;SDS011;6523;49.758;6.120;2023-02-01T13:26:13;12.77;;;3.30;;
12910;SDS011;6523;49.758;6.120;2023-02-01T13:28:44;8.53;;;2.57;;
12910;SDS011;6523;49.758;6.120;2023-02-01T13:42:13;8.77;;;2.87;;
12910;SDS011;6523;49.758;6.120;2023-02-01T13:44:47;8.53;;;2.73;;
12910;SDS011;6523;49.758;6.120;2023-02-01T13:49:53;9.83;;;2.70;;
12910;SDS011;6523;49.758;6.120;2023-02-01T13:52:26;7.90;;;2.17;;
12910;SDS011;6523;49.758;6.120;2023-02-01T13:55:01;8.13;;;3.23;;
12910;SDS011;6523;49.758;6.120;2023-02-01T13:57:40;10.50;;;3.17;;
12910;SDS011;6523;49.758;6.120;2023-02-01T14:29:18;9.10;;;2.90;;
12910;SDS011;6523;49.758;6.120;2023-02-01T14:42:25;9.67;;;2.20;;
12910;SDS011;6523;49.758;6.120;2023-02-01T14:47:53;6.83;;;2.33;;
12910;SDS011;6523;49.758;6.120;2023-02-01T14:50:46;7.47;;;2.23;;
12910;SDS011;6523;49.758;6.120;2023-02-01T14:55:48;6.27;;;2.33;;
12910;SDS011;6523;49.758;6.120;2023-02-01T15:01:16;9.40;;;2.57;;
12910;SDS011;6523;49.758;6.120;2023-02-01T15:06:40;11.97;;;3.57;;
12910;SDS011;6523;49.758;6.120;2023-02-01T15:09:26;9.33;;;3.07;;
12910;SDS011;6523;49.758;6.120;2023-02-01T15:12:05;10.97;;;3.87;;
12910;SDS011;6523;49.758;6.120;2023-02-01T15:14:44;10.17;;;2.47;;
12910;SDS011;6523;49.758;6.120;2023-02-01T15:17:30;8.13;;;4.80;;
12910;SDS011;6523;49.758;6.120;2023-02-01T15:20:00;16.10;;;4.70;;
12910;SDS011;6523;49.758;6.120;2023-02-01T15:22:38;5.10;;;2.00;;
12910;SDS011;6523;49.758;6.120;2023-02-01T15:25:04;9.00;;;2.33;;
12910;SDS011;6523;49.758;6.120;2023-02-01T15:27:30;11.30;;;2.53;;
12910;SDS011;6523;49.758;6.120;2023-02-01T15:30:16;14.60;;;3.43;;
12910;SDS011;6523;49.758;6.120;2023-02-01T15:32:44;10.80;;;2.80;;
12910;SDS011;6523;49.758;6.120;2023-02-01T15:41:05;9.40;;;2.17;;
12910;SDS011;6523;49.758;6.120;2023-02-01T15:43:33;10.67;;;2.97;;
12910;SDS011;6523;49.758;6.120;2023-02-01T15:46:41;10.53;;;2.77;;
12910;SDS011;6523;49.758;6.120;2023-02-01T15:49:16;10.60;;;3.73;;
12910;SDS011;6523;49.758;6.120;2023-02-01T15:51:52;6.87;;;2.50;;
12910;SDS011;6523;49.758;6.120;2023-02-01T15:54:20;11.30;;;2.40;;
12910;SDS011;6523;49.758;6.120;2023-02-01T15:56:54;11.93;;;3.63;;
12910;SDS011;6523;49.758;6.120;2023-02-01T15:59:22;9.67;;;2.40;;
12910;SDS011;6523;49.758;6.120;2023-02-01T16:01:54;10.33;;;2.63;;
12910;SDS011;6523;49.758;6.120;2023-02-01T16:04:21;7.70;;;1.97;;
12910;SDS011;6523;49.758;6.120;2023-02-01T16:09:18;11.57;;;2.43;;
12910;SDS011;6523;49.758;6.120;2023-02-01T16:11:59;10.43;;;2.77;;
12910;SDS011;6523;49.758;6.120;2023-02-01T16:14:26;7.53;;;3.17;;
12910;SDS011;6523;49.758;6.120;2023-02-01T16:16:55;11.67;;;2.80;;
12910;SDS011;6523;49.758;6.120;2023-02-01T16:19:23;7.87;;;2.37;;
12910;SDS011;6523;49.758;6.120;2023-02-01T16:21:52;8.47;;;2.27;;
12910;SDS011;6523;49.758;6.120;2023-02-01T16:24:19;10.30;;;2.80;;
12910;SDS011;6523;49.758;6.120;2023-02-01T16:26:47;11.00;;;3.00;;
12910;SDS011;6523;49.758;6.120;2023-02-01T16:29:12;9.50;;;2.80;;
12910;SDS011;6523;49.758;6.120;2023-02-01T16:31:40;9.67;;;2.83;;
12910;SDS011;6523;49.758;6.120;2023-02-01T16:34:06;12.30;;;3.17;;
12910;SDS011;6523;49.758;6.120;2023-02-01T16:36:37;11.30;;;2.90;;
12910;SDS011;6523;49.758;6.120;2023-02-01T16:39:03;15.33;;;3.33;;
12910;SDS011;6523;49.758;6.120;2023-02-01T16:41:29;12.27;;;4.07;;
12910;SDS011;6523;49.758;6.120;2023-02-01T16:43:54;12.47;;;3.37;;
12910;SDS011;6523;49.758;6.120;2023-02-01T16:46:22;18.23;;;6.37;;
12910;SDS011;6523;49.758;6.120;2023-02-01T16:48:59;10.77;;;3.47;;
12910;SDS011;6523;49.758;6.120;2023-02-01T16:51:26;10.00;;;2.50;;
12910;SDS011;6523;49.758;6.120;2023-02-01T16:53:56;12.90;;;3.43;;
12910;SDS011;6523;49.758;6.120;2023-02-01T16:56:23;10.60;;;2.63;;
12910;SDS011;6523;49.758;6.120;2023-02-01T16:58:54;10.90;;;3.30;;
12910;SDS011;6523;49.758;6.120;2023-02-01T17:01:20;8.83;;;3.43;;
12910;SDS011;6523;49.758;6.120;2023-02-01T17:03:45;10.57;;;3.33;;
12910;SDS011;6523;49.758;6.120;2023-02-01T17:06:11;10.03;;;3.13;;
12910;SDS011;6523;49.758;6.120;2023-02-01T17:08:44;10.50;;;3.20;;
12910;SDS011;6523;49.758;6.120;2023-02-01T17:11:14;13.40;;;3.70;;
12910;SDS011;6523;49.758;6.120;2023-02-01T17:13:40;9.23;;;2.60;;
12910;SDS011;6523;49.758;6.120;2023-02-01T17:18:52;12.60;;;3.00;;
12910;SDS011;6523;49.758;6.120;2023-02-01T17:21:23;8.50;;;3.33;;
12910;SDS011;6523;49.758;6.120;2023-02-01T17:23:51;14.00;;;3.97;;
12910;SDS011;6523;49.758;6.120;2023-02-01T17:26:17;15.87;;;3.43;;
12910;SDS011;6523;49.758;6.120;2023-02-01T17:28:43;13.00;;;2.77;;
12910;SDS011;6523;49.758;6.120;2023-02-01T17:31:13;8.63;;;3.17;;
12910;SDS011;6523;49.758;6.120;2023-02-01T17:33:40;8.97;;;2.70;;
12910;SDS011;6523;49.758;6.120;2023-02-01T17:36:08;12.47;;;3.43;;
12910;SDS011;6523;49.758;6.120;2023-02-01T17:38:40;10.87;;;3.07;;
12910;SDS011;6523;49.758;6.120;2023-02-01T17:41:06;13.33;;;3.23;;
12910;SDS011;6523;49.758;6.120;2023-02-01T17:43:35;15.70;;;3.23;;
12910;SDS011;6523;49.758;6.120;2023-02-01T17:46:05;9.87;;;3.63;;
12910;SDS011;6523;49.758;6.120;2023-02-01T17:48:36;12.67;;;3.33;;
12910;SDS011;6523;49.758;6.120;2023-02-01T17:51:02;8.03;;;3.00;;
12910;SDS011;6523;49.758;6.120;2023-02-01T17:53:28;13.37;;;2.70;;
12910;SDS011;6523;49.758;6.120;2023-02-01T17:55:54;8.90;;;3.00;;
12910;SDS011;6523;49.758;6.120;2023-02-01T17:58:22;12.77;;;2.90;;